Las Vegas, NM

4:20 PM MDT on October 01, 2014 (GMT -0600)
Angel Fire | Change Station
CLOSE
Current Station
Airport
Location: Angel Fire,
Elevation: 8379 ft
Nearby Weather Stations
Active Advisory: Special Statement

Elev 8379 ft 36.42 °N, 105.29 °W | Updated 25 minutes ago

Clear
Clear
61 °F
Feels Like 61 °F
N
26
Wind Variable Wind from SW
Gusts 36 mph

Today
High -- | Low -- °F
--% Chance of Precip.
Yesterday
High -- | Low -- °F
Precip. -- in
6:55 AM 6:44 PM
First Quarter, 51% visible
Pressure 30.01 in
Visibility 10.0 miles
Clouds Scattered Clouds 7000 ft
Scattered Clouds 8000 ft
Dew Point 27 °F
Humidity 27%
Rainfall 0.00 in
Snow Depth 0 in , 0 in , 2 in
UV 3 out of 12
Pollen 5.90 out of 12
Air Quality Not available.
Flu Activity Not available.
METAR KAXX 012155Z AUTO 23023G31KT 10SM SCT070 SCT080 16/M03 A3001 RMK AO2 T01631027

More Conditions Fewer Conditions

Pressure 30.01 in
Visibility 10.0 miles
Clouds Scattered Clouds 7000 ft
Scattered Clouds 8000 ft
Dew Point 27 °F
Humidity 27%
Rainfall 0.00 in
Snow Depth 0 in , 0 in , 2 in
UV 3 out of 12
Pollen 5.90 out of 12
Air Quality Not available.
Flu Activity Not available.
METAR KAXX 012155Z AUTO 23023G31KT 10SM SCT070 SCT080 16/M03 A3001 RMK AO2 T01631027

More Conditions Fewer Conditions

10-Day Weather Forecast

Almanac

Astronomy

Oct. 01, 2014 Rise Set
Actual Time 6:55 AM MDT 6:44 PM MDT
Civil Twilight 6:30 AM MDT 7:09 PM MDT
Nautical Twilight 6:00 AM MDT 7:39 PM MDT
Astronomical Twilight 5:31 AM MDT 8:09 PM MDT
Moon 1:50 PM MDT No Moon Set
Length of Visible Light 12h 39m
Length of Day
11h 48m
Tomorrow will be 2m 13s shorter.
First Quarter, 51% of the Moon is Illuminated
Today
First Quarter
Oct 8
Full
Oct 15
Last Quarter
Oct 23
New
Oct 30
First Quarter

Today's Extremes

State Highs State Lows

Community

WunderPhotos

Upload Photos

1,758,058 photos uploaded!

WunderBlogs® & News

By Dr. Jeff Masters
Director of Meteorology, Weather Underground
By Kari Strenfel
Meteorologist, Weather Underground
By Christopher C. Burt
Weather Historian, Weather Underground
October 1, 2014
October 1, 2014
October 1, 2014

Nearby

Snow Depth

Station Depth Elevation
Red River Pass #2 0 in 9850 ft
Quemazon 0 in 9500 ft
Wesner Springs 2 in 11120 ft
Tolby 0 in 10180 ft
Silver Creek Divide 20 in 9000 ft

Earthquake Activity

City Distance Mag. Time & Date
Trinidad, Colorado 102 miles 2.9 3:55 AM MDT
2014-09-30
Minimum magnitude displayed is 2.5.

Coastal Water Temperatures

Place Temperature
No Stations Reporting

Nearby Weather Stations